createdAt,value
2019-01-25T00:01:51.029Z,31.60
2019-01-25T00:04:20.588Z,35.97
2019-01-25T00:06:50.203Z,35.83
2019-01-25T00:09:19.870Z,30.23
2019-01-25T00:11:49.445Z,29.67
2019-01-25T00:14:19.045Z,34.47
2019-01-25T00:16:48.660Z,29.90
2019-01-25T00:19:18.265Z,29.30
2019-01-25T00:21:47.962Z,27.37
2019-01-25T00:24:17.559Z,26.50
2019-01-25T00:26:47.266Z,32.23
2019-01-25T00:29:16.928Z,31.57
2019-01-25T00:31:46.545Z,30.67
2019-01-25T00:34:16.200Z,30.00
2019-01-25T00:36:45.840Z,28.43
2019-01-25T00:39:15.535Z,27.63
2019-01-25T00:41:45.136Z,33.13
2019-01-25T00:44:15.682Z,31.80
2019-01-25T00:46:45.375Z,30.60
2019-01-25T00:49:14.996Z,33.37
2019-01-25T00:51:44.595Z,31.67
2019-01-25T00:54:14.262Z,34.47
2019-01-25T00:56:43.865Z,35.03
2019-01-25T00:59:13.480Z,40.20
2019-01-25T01:01:43.093Z,39.53
2019-01-25T01:04:12.719Z,36.17
2019-01-25T01:06:42.433Z,38.23
2019-01-25T01:09:12.106Z,35.67
2019-01-25T01:11:41.748Z,34.77
2019-01-25T01:14:11.412Z,36.67
2019-01-25T01:16:41.081Z,42.80
2019-01-25T01:19:10.648Z,36.30
2019-01-25T01:21:40.309Z,39.27
2019-01-25T01:24:09.939Z,40.53
2019-01-25T01:26:39.485Z,44.90
2019-01-25T01:29:09.168Z,43.33
2019-01-25T01:31:38.921Z,43.17
2019-01-25T01:34:08.617Z,44.97
2019-01-25T01:36:38.366Z,41.60
2019-01-25T01:39:08.861Z,45.80
2019-01-25T01:41:38.450Z,43.20
2019-01-25T01:44:08.106Z,45.13
2019-01-25T01:46:37.810Z,43.20
2019-01-25T01:49:07.406Z,49.03
2019-01-25T01:51:37.089Z,47.93
2019-01-25T01:54:06.797Z,46.00
2019-01-25T01:56:36.423Z,42.77
2019-01-25T01:59:06.120Z,50.03
2019-01-25T02:01:35.718Z,46.47
2019-01-25T02:04:05.537Z,45.07
2019-01-25T02:06:35.203Z,52.77
2019-01-25T02:09:06.890Z,46.00
2019-01-25T02:11:36.526Z,41.63
2019-01-25T02:14:07.142Z,49.77
2019-01-25T02:16:36.817Z,48.43
2019-01-25T02:19:06.652Z,50.27
2019-01-25T02:21:36.265Z,49.50
2019-01-25T02:24:06.269Z,47.47
2019-01-25T02:26:35.862Z,46.03
2019-01-25T02:29:05.821Z,49.43
2019-01-25T02:31:35.478Z,47.67
2019-01-25T02:34:05.128Z,50.27
2019-01-25T02:36:34.705Z,49.10
2019-01-25T02:39:05.769Z,53.20
2019-01-25T02:41:35.419Z,51.23
2019-01-25T02:44:05.777Z,46.50
2019-01-25T02:46:35.363Z,52.27
2019-01-25T02:49:04.939Z,50.80
2019-01-25T02:51:34.583Z,56.47
2019-01-25T02:54:04.359Z,53.57
2019-01-25T02:56:33.974Z,49.60
2019-01-25T02:59:03.974Z,56.10
2019-01-25T03:01:33.597Z,54.03
2019-01-25T03:04:03.188Z,49.87
2019-01-25T03:06:32.856Z,46.70
2019-01-25T03:09:02.392Z,54.37
2019-01-25T03:11:31.937Z,54.73
2019-01-25T03:14:01.533Z,51.40
2019-01-25T03:16:31.173Z,58.80
2019-01-25T03:19:00.880Z,53.50
2019-01-25T03:21:30.587Z,58.50
2019-01-25T03:24:00.238Z,55.57
2019-01-25T03:26:29.976Z,52.53
2019-01-25T03:28:59.621Z,54.37
2019-01-25T03:31:29.293Z,56.90
2019-01-25T03:33:58.943Z,52.93
2019-01-25T03:36:28.598Z,55.90
2019-01-25T03:38:58.273Z,58.87
2019-01-25T03:41:27.890Z,47.80
2019-01-25T03:43:57.595Z,54.87
2019-01-25T03:46:27.226Z,51.63
2019-01-25T03:48:56.839Z,52.97
2019-01-25T03:51:26.496Z,52.70
2019-01-25T03:53:56.087Z,51.53
2019-01-25T03:56:25.814Z,53.40
2019-01-25T03:58:55.507Z,55.13
2019-01-25T04:01:25.145Z,48.00
2019-01-25T04:03:54.831Z,50.40
2019-01-25T04:06:25.276Z,54.90
2019-01-25T04:08:54.909Z,54.60
2019-01-25T04:11:24.537Z,56.23
2019-01-25T04:13:54.223Z,51.27
2019-01-25T04:16:23.850Z,57.93
2019-01-25T04:18:53.452Z,54.87
2019-01-25T04:21:23.177Z,53.60
2019-01-25T04:23:52.788Z,50.27
2019-01-25T04:26:22.311Z,53.60
2019-01-25T04:28:51.947Z,53.20
2019-01-25T04:31:21.587Z,49.37
2019-01-25T04:33:51.220Z,51.80
2019-01-25T04:36:20.887Z,55.90
2019-01-25T04:38:50.507Z,52.73
2019-01-25T04:41:20.161Z,55.23
2019-01-25T04:43:49.830Z,56.77
2019-01-25T04:46:19.481Z,49.77
2019-01-25T04:48:49.120Z,60.50
2019-01-25T04:51:18.786Z,54.70
2019-01-25T04:53:48.368Z,54.50
2019-01-25T04:56:17.926Z,55.97
2019-01-25T04:58:47.506Z,56.43
2019-01-25T05:01:17.103Z,54.97
2019-01-25T05:03:46.863Z,58.70
2019-01-25T05:06:18.041Z,57.23
2019-01-25T05:08:47.728Z,56.63
2019-01-25T05:11:20.030Z,60.83
2019-01-25T05:13:49.918Z,59.30
2019-01-25T05:16:19.559Z,55.20
2019-01-25T05:18:49.187Z,57.50
2019-01-25T05:21:25.741Z,55.67
2019-01-25T05:23:55.349Z,59.10
2019-01-25T05:26:25.101Z,60.70
2019-01-25T05:28:54.786Z,61.00
2019-01-25T05:31:27.418Z,58.73
2019-01-25T05:33:59.280Z,62.63
2019-01-25T05:36:29.017Z,55.43
2019-01-25T05:38:58.647Z,60.53
2019-01-25T05:41:28.910Z,56.33
2019-01-25T05:43:58.631Z,63.13
2019-01-25T05:46:28.218Z,55.90
2019-01-25T05:48:57.838Z,58.30
2019-01-25T05:51:33.625Z,59.00
2019-01-25T05:54:00.381Z,57.67
2019-01-25T05:56:30.224Z,58.63
2019-01-25T05:59:00.147Z,59.93
2019-01-25T06:01:29.792Z,81.40
2019-01-25T06:03:59.453Z,59.40
2019-01-25T06:06:29.165Z,52.97
2019-01-25T06:08:59.132Z,61.50
2019-01-25T06:11:35.255Z,62.13
2019-01-25T06:14:00.454Z,60.73
2019-01-25T06:16:30.120Z,74.13
2019-01-25T06:18:59.699Z,61.33
2019-01-25T06:21:29.302Z,56.07
2019-01-25T06:23:59.005Z,54.67
2019-01-25T06:26:29.981Z,73.10
2019-01-25T06:28:59.681Z,80.60
2019-01-25T06:31:29.352Z,68.43
2019-01-25T06:34:00.709Z,62.23
2019-01-25T06:36:30.417Z,61.47
2019-01-25T06:39:00.168Z,55.40
2019-01-25T06:41:29.766Z,65.07
2019-01-25T06:43:59.373Z,75.87
2019-01-25T06:46:28.902Z,60.00
2019-01-25T06:48:58.440Z,103.80
2019-01-25T06:51:28.084Z,59.70
2019-01-25T06:53:59.881Z,62.87
2019-01-25T06:56:29.590Z,72.17
2019-01-25T06:59:10.327Z,61.80
2019-01-25T07:01:44.523Z,61.23
2019-01-25T07:04:14.139Z,55.00
2019-01-25T07:06:43.767Z,66.13
2019-01-25T07:09:13.867Z,68.77
2019-01-25T07:11:43.484Z,64.63
2019-01-25T07:14:13.368Z,65.43
2019-01-25T07:16:43.268Z,62.03
2019-01-25T07:19:15.792Z,59.63
2019-01-25T07:21:45.590Z,55.63
2019-01-25T07:24:15.314Z,59.47
2019-01-25T07:26:45.155Z,61.57
2019-01-25T07:29:14.990Z,60.87
2019-01-25T07:31:46.386Z,62.23
2019-01-25T07:34:16.262Z,51.47
2019-01-25T07:36:52.022Z,58.60
2019-01-25T07:39:26.879Z,56.40
2019-01-25T07:42:00.229Z,58.53
2019-01-25T07:44:28.103Z,58.10
2019-01-25T07:46:57.906Z,60.60
2019-01-25T07:49:27.762Z,55.70
2019-01-25T07:51:57.530Z,61.40
2019-01-25T07:54:27.331Z,57.53
2019-01-25T07:56:57.103Z,55.57
2019-01-25T07:59:26.779Z,59.27
2019-01-25T08:01:56.584Z,58.13
2019-01-25T08:04:26.271Z,55.97
2019-01-25T08:06:58.885Z,57.40
2019-01-25T08:09:28.643Z,66.17
2019-01-25T08:11:58.456Z,56.53
2019-01-25T08:14:28.365Z,61.60
2019-01-25T08:17:13.356Z,51.77
2019-01-25T08:19:43.220Z,61.10
2019-01-25T08:22:16.025Z,59.93
2019-01-25T08:24:44.856Z,55.77
2019-01-25T08:27:15.861Z,52.60
2019-01-25T08:29:45.777Z,52.37
2019-01-25T08:32:17.409Z,73.83
2019-01-25T08:34:49.040Z,59.53
2019-01-25T08:37:28.621Z,64.13
2019-01-25T08:39:58.702Z,56.97
2019-01-25T08:42:30.748Z,51.43
2019-01-25T08:45:00.651Z,53.97
2019-01-25T08:47:30.739Z,55.93
2019-01-25T08:50:00.820Z,54.33
2019-01-25T08:52:30.512Z,60.73
2019-01-25T08:55:00.352Z,55.40
2019-01-25T08:57:30.081Z,57.43
2019-01-25T09:00:01.036Z,57.70
2019-01-25T09:02:30.902Z,54.80
2019-01-25T09:05:00.551Z,65.33
2019-01-25T09:07:30.281Z,54.43
2019-01-25T09:10:00.002Z,52.37
2019-01-25T09:12:29.640Z,53.40
2019-01-25T09:14:59.342Z,54.07
2019-01-25T09:18:05.486Z,57.00
2019-01-25T09:20:38.900Z,36.70
2019-01-25T09:23:08.648Z,57.73
2019-01-25T09:25:40.910Z,59.23
2019-01-25T09:28:13.816Z,56.63
2019-01-25T09:30:49.480Z,76.63
2019-01-25T09:33:21.212Z,57.43
2019-01-25T09:35:51.009Z,55.43
2019-01-25T09:38:23.896Z,59.53
2019-01-25T09:40:53.564Z,55.43
2019-01-25T09:43:23.440Z,58.37
2019-01-25T09:45:53.142Z,60.90
2019-01-25T09:48:25.791Z,102.13
2019-01-25T09:50:58.250Z,62.80
2019-01-25T09:53:28.048Z,64.40
2019-01-25T09:56:02.345Z,55.43
2019-01-25T09:59:04.330Z,59.77
2019-01-25T10:01:33.967Z,48.83
2019-01-25T10:04:03.640Z,59.07
2019-01-25T10:06:39.223Z,54.97
2019-01-25T10:09:10.120Z,65.90
2019-01-25T10:11:39.748Z,54.53
2019-01-25T10:14:09.330Z,59.03
2019-01-25T10:16:38.930Z,64.90
2019-01-25T10:19:08.513Z,61.00
2019-01-25T10:21:38.146Z,61.10
2019-01-25T10:24:07.698Z,62.37
2019-01-25T10:26:37.322Z,59.93
2019-01-25T10:29:06.933Z,59.40
2019-01-25T10:31:36.774Z,51.37
2019-01-25T10:34:06.387Z,61.00
2019-01-25T10:36:36.032Z,82.90
2019-01-25T10:39:08.575Z,104.93
2019-01-25T10:41:38.215Z,59.27
2019-01-25T10:44:09.147Z,59.20
2019-01-25T10:46:38.742Z,62.07
2019-01-25T10:49:08.319Z,55.73
2019-01-25T10:51:37.897Z,61.33
2019-01-25T10:54:07.621Z,53.43
2019-01-25T10:56:41.814Z,58.30
2019-01-25T10:59:08.440Z,51.37
2019-01-25T11:01:38.049Z,57.27
2019-01-25T11:04:11.543Z,53.20
2019-01-25T11:06:38.874Z,53.13
2019-01-25T11:09:10.225Z,56.73
2019-01-25T11:11:39.959Z,50.20
2019-01-25T11:14:09.582Z,51.53
2019-01-25T11:16:39.195Z,55.23
2019-01-25T11:19:08.765Z,57.17
2019-01-25T11:21:38.378Z,55.77
2019-01-25T11:24:08.060Z,50.87
2019-01-25T11:26:37.659Z,47.43
2019-01-25T11:29:07.574Z,49.83
2019-01-25T11:31:37.097Z,51.03
2019-01-25T11:34:07.700Z,53.63
2019-01-25T11:36:37.308Z,48.57
2019-01-25T11:39:09.729Z,48.33
2019-01-25T11:41:39.356Z,46.33
2019-01-25T11:44:08.937Z,44.70
2019-01-25T11:46:38.454Z,48.77
2019-01-25T11:49:08.165Z,50.03
2019-01-25T11:51:37.775Z,47.70
2019-01-25T11:54:07.327Z,51.97
2019-01-25T11:56:36.947Z,45.43
2019-01-25T11:59:06.591Z,53.27
2019-01-25T12:01:36.414Z,49.23
2019-01-25T12:04:06.582Z,52.67
2019-01-25T12:06:36.250Z,56.07
2019-01-25T12:09:10.835Z,44.50
2019-01-25T12:11:40.470Z,33.60
2019-01-25T12:14:10.135Z,41.87
2019-01-25T12:16:39.805Z,47.43
2019-01-25T12:19:09.461Z,44.00
2019-01-25T12:21:39.119Z,40.93
2019-01-25T12:24:10.142Z,78.77
2019-01-25T12:26:39.858Z,42.53
2019-01-25T12:29:09.780Z,37.83
2019-01-25T12:31:39.349Z,40.17
2019-01-25T12:34:12.324Z,44.77
2019-01-25T12:36:42.055Z,40.40
2019-01-25T12:39:11.896Z,44.77
2019-01-25T12:41:41.542Z,42.43
2019-01-25T12:44:11.219Z,33.90
2019-01-25T12:46:40.895Z,42.63
2019-01-25T12:49:10.466Z,44.50
2019-01-25T12:51:52.344Z,48.83
2019-01-25T12:54:21.951Z,49.07
2019-01-25T12:56:51.468Z,46.27
2019-01-25T12:59:21.038Z,50.03
2019-01-25T13:01:51.296Z,43.73
2019-01-25T13:04:35.386Z,47.70
2019-01-25T13:06:52.563Z,45.37
2019-01-25T13:09:23.515Z,45.53
2019-01-25T13:11:53.176Z,50.80
2019-01-25T13:14:22.792Z,51.33
2019-01-25T13:16:52.364Z,52.80
2019-01-25T13:19:22.050Z,53.00
2019-01-25T13:21:51.631Z,53.87
2019-01-25T13:24:21.270Z,55.77
2019-01-25T13:26:50.938Z,52.03
2019-01-25T13:29:26.049Z,50.87
2019-01-25T13:31:51.805Z,54.30
2019-01-25T13:34:21.517Z,62.47
2019-01-25T13:36:57.156Z,55.47
2019-01-25T13:39:30.106Z,68.37
2019-01-25T13:41:59.647Z,58.77
2019-01-25T13:44:31.801Z,53.77
2019-01-25T13:47:01.342Z,52.07
2019-01-25T13:49:30.904Z,56.00
2019-01-25T13:52:00.478Z,49.17
2019-01-25T13:54:30.067Z,53.87
2019-01-25T13:56:59.588Z,50.53
2019-01-25T13:59:29.193Z,53.40
2019-01-25T14:01:58.756Z,47.97
2019-01-25T14:04:28.309Z,47.53
2019-01-25T14:06:57.880Z,49.70
2019-01-25T14:09:27.590Z,46.47
2019-01-25T14:11:57.172Z,51.80
2019-01-25T14:14:26.728Z,45.20
2019-01-25T14:16:56.343Z,47.90
2019-01-25T14:19:25.910Z,49.40
2019-01-25T14:21:55.561Z,41.80
2019-01-25T14:24:25.209Z,56.03
2019-01-25T14:26:54.778Z,54.47
2019-01-25T14:29:29.272Z,49.07
2019-01-25T14:31:56.886Z,50.03
2019-01-25T14:34:26.590Z,47.03
2019-01-25T14:36:56.316Z,95.77
2019-01-25T14:39:28.770Z,48.63
2019-01-25T14:41:58.345Z,56.80
2019-01-25T14:44:31.098Z,53.33
2019-01-25T14:47:05.299Z,58.90
2019-01-25T14:49:35.062Z,56.17
2019-01-25T14:52:04.886Z,64.93
2019-01-25T14:54:35.043Z,58.30
2019-01-25T14:57:07.875Z,52.17
2019-01-25T14:59:40.220Z,55.70
2019-01-25T15:02:47.871Z,53.30
2019-01-25T15:05:18.952Z,55.57
2019-01-25T15:07:48.547Z,52.90
2019-01-25T15:10:20.498Z,35.80
2019-01-25T15:12:51.651Z,50.97
2019-01-25T15:15:21.445Z,60.13
2019-01-25T15:18:01.183Z,61.27
2019-01-25T15:20:31.095Z,55.47
2019-01-25T15:23:00.754Z,56.47
2019-01-25T15:25:32.708Z,52.73
2019-01-25T15:28:10.144Z,74.37
2019-01-25T15:30:39.770Z,58.60
2019-01-25T15:33:09.455Z,76.23
2019-01-25T15:35:40.349Z,59.20
2019-01-25T15:38:10.048Z,55.60
2019-01-25T15:40:40.029Z,50.87
2019-01-25T15:43:09.629Z,54.83
2019-01-25T15:45:39.266Z,62.13
2019-01-25T15:48:09.084Z,60.73
2019-01-25T15:50:38.766Z,73.33
2019-01-25T15:53:08.863Z,61.77
2019-01-25T15:55:38.626Z,64.77
2019-01-25T15:58:08.242Z,66.97
2019-01-25T16:00:38.183Z,66.87
2019-01-25T16:03:32.516Z,57.00
2019-01-25T16:06:02.147Z,61.13
2019-01-25T16:08:31.764Z,72.87
2019-01-25T16:11:01.290Z,80.40
2019-01-25T16:13:32.922Z,71.87
2019-01-25T16:16:02.482Z,85.43
2019-01-25T16:18:33.410Z,73.13
2019-01-25T16:21:02.971Z,66.00
2019-01-25T16:23:35.714Z,69.87
2019-01-25T16:26:07.608Z,66.47
2019-01-25T16:28:37.425Z,66.73
2019-01-25T16:31:07.003Z,62.20
2019-01-25T16:33:36.670Z,60.17
2019-01-25T16:36:06.278Z,70.60
2019-01-25T16:38:35.870Z,65.90
2019-01-25T16:41:06.120Z,68.17
2019-01-25T16:43:35.703Z,58.00
2019-01-25T16:46:05.495Z,64.43
2019-01-25T16:48:36.481Z,106.53
2019-01-25T16:51:07.839Z,65.43
2019-01-25T16:53:37.402Z,71.47
2019-01-25T16:56:07.024Z,72.80
2019-01-25T16:58:36.681Z,71.30
2019-01-25T17:01:06.733Z,69.83
2019-01-25T17:03:36.281Z,64.83
2019-01-25T17:06:06.003Z,69.33
2019-01-25T17:08:35.585Z,67.90
2019-01-25T17:11:05.834Z,67.73
2019-01-25T17:13:35.572Z,57.37
2019-01-25T17:16:05.786Z,61.03
2019-01-25T17:18:40.290Z,65.40
2019-01-25T17:21:12.428Z,62.77
2019-01-25T17:23:42.115Z,67.40
2019-01-25T17:26:11.754Z,63.80
2019-01-25T17:28:41.631Z,66.37
2019-01-25T17:31:11.219Z,55.93
2019-01-25T17:33:42.407Z,65.77
2019-01-25T17:36:12.122Z,65.67
2019-01-25T17:38:42.882Z,62.63
2019-01-25T17:41:14.828Z,57.43
2019-01-25T17:43:46.766Z,59.03
2019-01-25T17:46:15.640Z,60.97
2019-01-25T17:48:45.250Z,62.33
2019-01-25T17:51:14.982Z,64.33
2019-01-25T17:53:44.604Z,66.83
2019-01-25T17:56:14.407Z,53.20
2019-01-25T17:58:44.267Z,65.80
2019-01-25T18:01:14.127Z,99.43
2019-01-25T18:03:44.236Z,80.07
2019-01-25T18:06:17.863Z,82.07
2019-01-25T18:08:47.537Z,78.00
2019-01-25T18:11:17.150Z,106.13
2019-01-25T18:13:46.882Z,87.03
2019-01-25T18:16:16.515Z,71.70
2019-01-25T18:18:48.195Z,78.07
2019-01-25T18:21:17.806Z,68.90
2019-01-25T18:23:47.401Z,70.13
2019-01-25T18:26:21.081Z,73.87
2019-01-25T18:29:00.245Z,71.93
2019-01-25T18:31:31.211Z,69.80
2019-01-25T18:34:00.919Z,73.37
2019-01-25T18:36:30.727Z,76.00
2019-01-25T18:39:00.460Z,76.03
2019-01-25T18:41:30.241Z,83.83
2019-01-25T18:43:59.887Z,77.90
2019-01-25T18:46:29.571Z,72.23
2019-01-25T18:48:59.201Z,101.07
2019-01-25T18:51:28.887Z,75.33
2019-01-25T18:53:58.574Z,71.83
2019-01-25T18:56:28.447Z,68.70
2019-01-25T18:58:58.129Z,80.27
2019-01-25T19:01:27.763Z,86.80
2019-01-25T19:04:03.407Z,79.10
2019-01-25T19:06:33.062Z,68.87
2019-01-25T19:09:02.720Z,68.97
2019-01-25T19:11:32.362Z,68.33
2019-01-25T19:14:02.110Z,80.07
2019-01-25T19:16:31.735Z,97.13
2019-01-25T19:19:01.327Z,73.73
2019-01-25T19:21:31.127Z,99.60
2019-01-25T19:24:00.848Z,76.13
2019-01-25T19:26:36.873Z,74.20
2019-01-25T19:29:25.600Z,54.07
2019-01-25T19:32:06.832Z,55.53
2019-01-25T19:34:35.284Z,74.43
2019-01-25T19:37:13.298Z,55.73
2019-01-25T19:39:49.276Z,54.97
2019-01-25T19:42:26.008Z,57.63
2019-01-25T19:44:59.889Z,71.80
2019-01-25T19:47:39.144Z,82.77
2019-01-25T19:50:10.920Z,86.17
2019-01-25T19:52:41.232Z,81.23
2019-01-25T19:55:17.250Z,66.37
2019-01-25T19:57:47.331Z,58.80
2019-01-25T20:00:22.943Z,56.67
2019-01-25T20:02:52.911Z,48.97
2019-01-25T20:05:22.719Z,49.27
2019-01-25T20:07:55.862Z,47.97
2019-01-25T20:10:25.726Z,52.93
2019-01-25T20:12:55.366Z,70.97
2019-01-25T20:15:25.082Z,73.50
2019-01-25T20:17:54.680Z,70.33
2019-01-25T20:20:29.582Z,80.63
2019-01-25T20:22:59.281Z,84.77
2019-01-25T20:25:28.881Z,73.00
2019-01-25T20:27:58.515Z,76.10
2019-01-25T20:30:29.941Z,70.10
2019-01-25T20:33:00.881Z,72.60
2019-01-25T20:35:35.455Z,96.20
2019-01-25T20:38:05.403Z,96.33
2019-01-25T20:40:35.149Z,89.80
2019-01-25T20:43:05.117Z,96.30
2019-01-25T20:45:36.450Z,85.07
2019-01-25T20:48:06.835Z,80.73
2019-01-25T20:50:36.637Z,71.50
2019-01-25T20:53:07.171Z,81.23
2019-01-25T20:55:36.873Z,75.33
2019-01-25T20:58:07.148Z,66.63
2019-01-25T21:00:38.059Z,92.60
2019-01-25T21:03:12.080Z,88.03
2019-01-25T21:05:41.815Z,79.13
2019-01-25T21:08:11.654Z,83.13
2019-01-25T21:10:41.134Z,78.67
2019-01-25T21:13:10.873Z,74.17
2019-01-25T21:15:40.721Z,59.13
2019-01-25T21:18:10.374Z,67.23
2019-01-25T21:20:42.581Z,67.73
2019-01-25T21:23:12.273Z,87.77
2019-01-25T21:25:42.083Z,63.47
2019-01-25T21:28:12.039Z,57.30
2019-01-25T21:30:41.745Z,56.07
2019-01-25T21:33:11.339Z,59.43
2019-01-25T21:35:40.951Z,59.90
2019-01-25T21:38:10.567Z,64.73
2019-01-25T21:40:45.376Z,69.93
2019-01-25T21:43:14.969Z,74.53
2019-01-25T21:45:44.570Z,76.37
2019-01-25T21:48:18.365Z,71.43
2019-01-25T21:50:48.558Z,68.87
2019-01-25T21:53:18.218Z,71.77
2019-01-25T21:55:47.855Z,74.33
2019-01-25T21:58:17.655Z,74.80
2019-01-25T22:00:47.217Z,65.57
2019-01-25T22:03:16.859Z,68.17
2019-01-25T22:05:50.267Z,60.67
2019-01-25T22:08:19.907Z,56.00
2019-01-25T22:10:50.845Z,77.03
2019-01-25T22:13:20.479Z,44.97
2019-01-25T22:15:51.107Z,52.27
2019-01-25T22:18:21.002Z,57.37
2019-01-25T22:20:50.518Z,50.30
2019-01-25T22:23:20.171Z,50.77
2019-01-25T22:25:49.944Z,50.17
2019-01-25T22:28:19.479Z,50.73
2019-01-25T22:30:49.171Z,50.23
2019-01-25T22:33:18.789Z,46.60
2019-01-25T22:35:48.297Z,51.53
2019-01-25T22:38:17.838Z,51.67
2019-01-25T22:40:47.454Z,61.33
2019-01-25T22:43:16.983Z,51.40
2019-01-25T22:45:46.617Z,61.33
2019-01-25T22:48:16.242Z,49.47
2019-01-25T22:50:45.829Z,55.17
2019-01-25T22:53:15.477Z,50.27
2019-01-25T22:55:45.097Z,51.90
2019-01-25T22:58:14.633Z,52.57
2019-01-25T23:01:08.122Z,51.60
2019-01-25T23:03:45.101Z,57.83
2019-01-25T23:07:04.910Z,53.63
2019-01-25T23:09:37.225Z,60.53
2019-01-25T23:12:07.078Z,59.90
2019-01-25T23:14:36.681Z,52.40
2019-01-25T23:17:06.783Z,58.40
2019-01-25T23:19:36.309Z,69.83
2019-01-25T23:22:06.334Z,64.70
2019-01-25T23:24:35.910Z,60.20
2019-01-25T23:27:05.726Z,63.13
2019-01-25T23:29:35.346Z,63.10
2019-01-25T23:32:05.052Z,70.07
2019-01-25T23:34:36.006Z,68.07
2019-01-25T23:37:05.915Z,69.23
2019-01-25T23:40:37.969Z,58.40
2019-01-25T23:43:07.520Z,65.63
2019-01-25T23:45:38.180Z,62.87
2019-01-25T23:48:07.839Z,59.77
2019-01-25T23:50:37.425Z,70.57
2019-01-25T23:53:07.345Z,71.13
2019-01-25T23:55:36.979Z,64.27
2019-01-25T23:58:09.954Z,74.97
